Maple Dell, Vermont
Current Conditions -  °F | °C
As of 10:54 AM on Friday 24 Oct 2014 (Local Time) from KVSF Reporting Station
Overcast Overcast  
Wind Chill:   Ceiling: 2500
Heat Index:   Visibility: 10mi
Dew Point:   Wind: 6mph
Humidity: 80%   Direction: 300°WNW
Pressure: 29.78"   Gusts: NA
Location:  43.3096°N, 72.4675°W
Report Text: KVSF 241454Z AUTO 30005KT 10SM SCT020 OVC025 08/05 A2978 RMK AO2 SLP089 60000 T00830050 50001
Loading
Personal Weather Stations






























Interactive Weather Map
Tropical Storm Tracking
New forecast layout! Learn more

10-Day Weather Forecast

Advertisements
Track Severe Weather on mobile